sensor_id;sensor_type;location;lat;lon;timestamp;temperature;humidity
7447;DHT22;3765;47.962;7.952;2022-07-23T00:01:58;24.60;54.70
7447;DHT22;3765;47.962;7.952;2022-07-23T00:04:26;24.70;54.90
7447;DHT22;3765;47.962;7.952;2022-07-23T00:06:56;24.70;55.10
7447;DHT22;3765;47.962;7.952;2022-07-23T00:09:24;24.60;55.40
7447;DHT22;3765;47.962;7.952;2022-07-23T00:11:53;24.60;55.20
7447;DHT22;3765;47.962;7.952;2022-07-23T00:14:21;24.70;54.90
7447;DHT22;3765;47.962;7.952;2022-07-23T00:16:49;24.50;54.90
7447;DHT22;3765;47.962;7.952;2022-07-23T00:19:17;24.40;55.00
7447;DHT22;3765;47.962;7.952;2022-07-23T00:21:46;24.30;55.20
7447;DHT22;3765;47.962;7.952;2022-07-23T00:24:15;24.20;55.60
7447;DHT22;3765;47.962;7.952;2022-07-23T00:26:43;24.10;55.80
7447;DHT22;3765;47.962;7.952;2022-07-23T00:29:12;24.00;56.20
7447;DHT22;3765;47.962;7.952;2022-07-23T00:31:40;23.90;56.50
7447;DHT22;3765;47.962;7.952;2022-07-23T00:34:13;23.80;56.70
7447;DHT22;3765;47.962;7.952;2022-07-23T00:36:42;23.90;56.90
7447;DHT22;3765;47.962;7.952;2022-07-23T00:39:10;24.00;56.90
7447;DHT22;3765;47.962;7.952;2022-07-23T00:41:39;23.90;57.00
7447;DHT22;3765;47.962;7.952;2022-07-23T00:44:18;24.00;57.40
7447;DHT22;3765;47.962;7.952;2022-07-23T00:46:48;24.00;57.50
7447;DHT22;3765;47.962;7.952;2022-07-23T00:49:20;24.10;57.90
7447;DHT22;3765;47.962;7.952;2022-07-23T00:51:49;24.00;58.00
7447;DHT22;3765;47.962;7.952;2022-07-23T00:54:18;23.80;58.60
7447;DHT22;3765;47.962;7.952;2022-07-23T00:56:48;23.80;59.00
7447;DHT22;3765;47.962;7.952;2022-07-23T00:59:16;23.70;59.20
7447;DHT22;3765;47.962;7.952;2022-07-23T01:01:44;23.60;59.50
7447;DHT22;3765;47.962;7.952;2022-07-23T01:04:15;23.60;59.60
7447;DHT22;3765;47.962;7.952;2022-07-23T01:06:44;23.60;59.50
7447;DHT22;3765;47.962;7.952;2022-07-23T01:09:13;23.50;59.60
7447;DHT22;3765;47.962;7.952;2022-07-23T01:11:42;23.60;59.50
7447;DHT22;3765;47.962;7.952;2022-07-23T01:14:13;23.60;59.40
7447;DHT22;3765;47.962;7.952;2022-07-23T01:16:43;23.60;59.40
7447;DHT22;3765;47.962;7.952;2022-07-23T01:19:12;23.70;59.30
7447;DHT22;3765;47.962;7.952;2022-07-23T01:21:41;23.80;59.40
7447;DHT22;3765;47.962;7.952;2022-07-23T01:24:12;23.70;59.60
7447;DHT22;3765;47.962;7.952;2022-07-23T01:26:41;23.60;59.80
7447;DHT22;3765;47.962;7.952;2022-07-23T01:29:10;23.60;60.00
7447;DHT22;3765;47.962;7.952;2022-07-23T01:31:38;23.50;60.10
7447;DHT22;3765;47.962;7.952;2022-07-23T01:34:06;23.50;60.10
7447;DHT22;3765;47.962;7.952;2022-07-23T01:36:35;23.60;60.00
7447;DHT22;3765;47.962;7.952;2022-07-23T01:39:04;23.60;59.70
7447;DHT22;3765;47.962;7.952;2022-07-23T01:41:34;23.50;59.80
7447;DHT22;3765;47.962;7.952;2022-07-23T01:44:03;23.40;59.80
7447;DHT22;3765;47.962;7.952;2022-07-23T01:46:31;23.40;59.90
7447;DHT22;3765;47.962;7.952;2022-07-23T01:48:59;23.30;60.10
7447;DHT22;3765;47.962;7.952;2022-07-23T01:51:28;23.30;60.90
7447;DHT22;3765;47.962;7.952;2022-07-23T01:53:56;23.30;61.30
7447;DHT22;3765;47.962;7.952;2022-07-23T01:56:25;23.20;61.50
7447;DHT22;3765;47.962;7.952;2022-07-23T01:58:54;23.20;61.80
7447;DHT22;3765;47.962;7.952;2022-07-23T02:01:23;23.20;62.30
7447;DHT22;3765;47.962;7.952;2022-07-23T02:03:51;23.10;62.20
7447;DHT22;3765;47.962;7.952;2022-07-23T02:06:19;23.10;62.70
7447;DHT22;3765;47.962;7.952;2022-07-23T02:08:47;23.10;62.90
7447;DHT22;3765;47.962;7.952;2022-07-23T02:11:16;23.20;62.80
7447;DHT22;3765;47.962;7.952;2022-07-23T02:13:44;23.10;63.00
7447;DHT22;3765;47.962;7.952;2022-07-23T02:16:13;23.00;63.00
7447;DHT22;3765;47.962;7.952;2022-07-23T02:18:42;23.00;62.80
7447;DHT22;3765;47.962;7.952;2022-07-23T02:21:10;23.00;63.00
7447;DHT22;3765;47.962;7.952;2022-07-23T02:23:38;23.10;62.80
7447;DHT22;3765;47.962;7.952;2022-07-23T02:26:09;23.20;62.20
7447;DHT22;3765;47.962;7.952;2022-07-23T02:28:47;23.10;61.80
7447;DHT22;3765;47.962;7.952;2022-07-23T02:31:23;23.10;61.80
7447;DHT22;3765;47.962;7.952;2022-07-23T02:34:03;23.10;61.90
7447;DHT22;3765;47.962;7.952;2022-07-23T02:36:47;23.00;62.20
7447;DHT22;3765;47.962;7.952;2022-07-23T02:39:16;22.90;62.30
7447;DHT22;3765;47.962;7.952;2022-07-23T02:41:51;22.90;62.40
7447;DHT22;3765;47.962;7.952;2022-07-23T02:44:34;22.70;63.40
7447;DHT22;3765;47.962;7.952;2022-07-23T02:47:06;22.40;64.40
7447;DHT22;3765;47.962;7.952;2022-07-23T02:49:38;22.20;65.10
7447;DHT22;3765;47.962;7.952;2022-07-23T02:52:16;22.10;65.60
7447;DHT22;3765;47.962;7.952;2022-07-23T02:55:14;22.10;66.00
7447;DHT22;3765;47.962;7.952;2022-07-23T02:57:45;22.00;66.60
7447;DHT22;3765;47.962;7.952;2022-07-23T03:00:17;21.90;67.20
7447;DHT22;3765;47.962;7.952;2022-07-23T03:02:51;21.90;67.50
7447;DHT22;3765;47.962;7.952;2022-07-23T03:05:36;21.80;68.00
7447;DHT22;3765;47.962;7.952;2022-07-23T03:11:45;21.50;69.00
7447;DHT22;3765;47.962;7.952;2022-07-23T03:14:23;21.40;69.30
7447;DHT22;3765;47.962;7.952;2022-07-23T03:16:56;21.50;69.50
7447;DHT22;3765;47.962;7.952;2022-07-23T03:19:52;21.40;69.70
7447;DHT22;3765;47.962;7.952;2022-07-23T03:22:22;21.50;69.90
7447;DHT22;3765;47.962;7.952;2022-07-23T03:24:55;21.50;70.00
7447;DHT22;3765;47.962;7.952;2022-07-23T03:27:25;21.50;70.20
7447;DHT22;3765;47.962;7.952;2022-07-23T03:30:01;21.50;70.30
7447;DHT22;3765;47.962;7.952;2022-07-23T03:32:29;21.70;70.40
7447;DHT22;3765;47.962;7.952;2022-07-23T03:35:06;21.70;70.40
7447;DHT22;3765;47.962;7.952;2022-07-23T03:37:44;21.70;70.50
7447;DHT22;3765;47.962;7.952;2022-07-23T03:40:27;21.50;70.40
7447;DHT22;3765;47.962;7.952;2022-07-23T03:43:00;21.60;70.30
7447;DHT22;3765;47.962;7.952;2022-07-23T03:45:29;21.70;69.50
7447;DHT22;3765;47.962;7.952;2022-07-23T03:47:58;21.70;68.90
7447;DHT22;3765;47.962;7.952;2022-07-23T03:50:44;21.60;68.50
7447;DHT22;3765;47.962;7.952;2022-07-23T03:53:13;21.60;68.30
7447;DHT22;3765;47.962;7.952;2022-07-23T03:55:45;21.50;68.20
7447;DHT22;3765;47.962;7.952;2022-07-23T03:58:17;21.50;68.00
7447;DHT22;3765;47.962;7.952;2022-07-23T04:00:50;21.60;67.80
7447;DHT22;3765;47.962;7.952;2022-07-23T04:03:26;21.60;67.60
7447;DHT22;3765;47.962;7.952;2022-07-23T04:06:05;21.60;67.60
7447;DHT22;3765;47.962;7.952;2022-07-23T04:08:43;21.50;68.00
7447;DHT22;3765;47.962;7.952;2022-07-23T04:11:13;21.40;68.50
7447;DHT22;3765;47.962;7.952;2022-07-23T04:13:41;21.30;69.00
7447;DHT22;3765;47.962;7.952;2022-07-23T04:16:14;21.20;69.40
7447;DHT22;3765;47.962;7.952;2022-07-23T04:18:57;21.30;69.60
7447;DHT22;3765;47.962;7.952;2022-07-23T04:21:39;21.20;69.60
7447;DHT22;3765;47.962;7.952;2022-07-23T04:24:07;21.30;69.70
7447;DHT22;3765;47.962;7.952;2022-07-23T04:26:51;21.30;69.80
7447;DHT22;3765;47.962;7.952;2022-07-23T04:29:25;21.30;69.70
7447;DHT22;3765;47.962;7.952;2022-07-23T04:31:59;21.30;69.90
7447;DHT22;3765;47.962;7.952;2022-07-23T04:34:42;21.30;70.00
7447;DHT22;3765;47.962;7.952;2022-07-23T04:37:39;21.40;70.00
7447;DHT22;3765;47.962;7.952;2022-07-23T04:40:12;21.50;69.90
7447;DHT22;3765;47.962;7.952;2022-07-23T04:42:42;21.60;69.90
7447;DHT22;3765;47.962;7.952;2022-07-23T04:45:18;21.60;69.90
7447;DHT22;3765;47.962;7.952;2022-07-23T04:47:57;21.60;69.50
7447;DHT22;3765;47.962;7.952;2022-07-23T04:50:29;21.70;69.10
7447;DHT22;3765;47.962;7.952;2022-07-23T04:53:02;21.50;69.20
7447;DHT22;3765;47.962;7.952;2022-07-23T04:55:39;21.60;69.50
7447;DHT22;3765;47.962;7.952;2022-07-23T04:58:30;21.50;69.70
7447;DHT22;3765;47.962;7.952;2022-07-23T05:01:03;21.30;69.80
7447;DHT22;3765;47.962;7.952;2022-07-23T05:03:33;21.30;70.00
7447;DHT22;3765;47.962;7.952;2022-07-23T05:06:07;21.30;69.90
7447;DHT22;3765;47.962;7.952;2022-07-23T05:08:55;21.40;69.70
7447;DHT22;3765;47.962;7.952;2022-07-23T05:11:42;21.60;69.20
7447;DHT22;3765;47.962;7.952;2022-07-23T05:14:14;21.80;68.70
7447;DHT22;3765;47.962;7.952;2022-07-23T05:16:58;21.90;68.30
7447;DHT22;3765;47.962;7.952;2022-07-23T05:19:27;22.00;68.10
7447;DHT22;3765;47.962;7.952;2022-07-23T05:21:58;22.10;67.70
7447;DHT22;3765;47.962;7.952;2022-07-23T05:24:30;22.30;67.30
7447;DHT22;3765;47.962;7.952;2022-07-23T05:27:01;22.30;67.10
7447;DHT22;3765;47.962;7.952;2022-07-23T05:29:35;22.30;66.80
7447;DHT22;3765;47.962;7.952;2022-07-23T05:32:07;22.40;66.60
7447;DHT22;3765;47.962;7.952;2022-07-23T05:34:37;22.50;66.40
7447;DHT22;3765;47.962;7.952;2022-07-23T05:37:12;22.50;66.10
7447;DHT22;3765;47.962;7.952;2022-07-23T05:40:06;22.60;65.90
7447;DHT22;3765;47.962;7.952;2022-07-23T05:42:45;22.70;65.80
7447;DHT22;3765;47.962;7.952;2022-07-23T05:45:23;22.80;65.60
7447;DHT22;3765;47.962;7.952;2022-07-23T05:47:55;22.70;65.50
7447;DHT22;3765;47.962;7.952;2022-07-23T05:50:31;22.80;65.50
7447;DHT22;3765;47.962;7.952;2022-07-23T05:53:04;22.80;65.30
7447;DHT22;3765;47.962;7.952;2022-07-23T05:55:35;22.90;65.20
7447;DHT22;3765;47.962;7.952;2022-07-23T05:58:20;23.00;65.10
7447;DHT22;3765;47.962;7.952;2022-07-23T06:01:09;23.00;64.90
7447;DHT22;3765;47.962;7.952;2022-07-23T06:03:40;23.10;64.80
7447;DHT22;3765;47.962;7.952;2022-07-23T06:06:13;23.20;64.70
7447;DHT22;3765;47.962;7.952;2022-07-23T06:08:46;23.20;64.60
7447;DHT22;3765;47.962;7.952;2022-07-23T06:11:19;23.30;64.50
7447;DHT22;3765;47.962;7.952;2022-07-23T06:13:48;23.30;64.40
7447;DHT22;3765;47.962;7.952;2022-07-23T06:16:25;23.40;64.40
7447;DHT22;3765;47.962;7.952;2022-07-23T06:19:10;23.50;64.20
7447;DHT22;3765;47.962;7.952;2022-07-23T06:21:47;23.60;64.00
7447;DHT22;3765;47.962;7.952;2022-07-23T06:24:19;23.80;63.80
7447;DHT22;3765;47.962;7.952;2022-07-23T06:27:04;23.80;63.60
7447;DHT22;3765;47.962;7.952;2022-07-23T06:29:35;23.80;63.60
7447;DHT22;3765;47.962;7.952;2022-07-23T06:32:13;23.80;64.00
7447;DHT22;3765;47.962;7.952;2022-07-23T06:34:57;23.80;63.90
7447;DHT22;3765;47.962;7.952;2022-07-23T06:37:30;24.10;63.90
7447;DHT22;3765;47.962;7.952;2022-07-23T06:40:01;24.10;63.70
7447;DHT22;3765;47.962;7.952;2022-07-23T06:42:33;24.00;64.00
7447;DHT22;3765;47.962;7.952;2022-07-23T06:45:05;24.00;63.90
7447;DHT22;3765;47.962;7.952;2022-07-23T06:47:43;23.90;64.00
7447;DHT22;3765;47.962;7.952;2022-07-23T06:50:19;23.90;64.00
7447;DHT22;3765;47.962;7.952;2022-07-23T06:52:48;23.90;63.90
7447;DHT22;3765;47.962;7.952;2022-07-23T06:55:24;24.00;63.80
7447;DHT22;3765;47.962;7.952;2022-07-23T06:57:55;24.10;63.60
7447;DHT22;3765;47.962;7.952;2022-07-23T07:00:35;24.10;62.90
7447;DHT22;3765;47.962;7.952;2022-07-23T07:03:06;24.40;62.70
7447;DHT22;3765;47.962;7.952;2022-07-23T07:05:36;24.40;61.90
7447;DHT22;3765;47.962;7.952;2022-07-23T07:08:07;24.30;62.00
7447;DHT22;3765;47.962;7.952;2022-07-23T07:10:47;24.30;62.10
7447;DHT22;3765;47.962;7.952;2022-07-23T07:13:26;24.20;62.10
7447;DHT22;3765;47.962;7.952;2022-07-23T07:16:12;24.40;62.20
7447;DHT22;3765;47.962;7.952;2022-07-23T07:18:41;24.30;61.80
7447;DHT22;3765;47.962;7.952;2022-07-23T07:21:15;24.30;61.70
7447;DHT22;3765;47.962;7.952;2022-07-23T07:24:00;24.20;61.90
7447;DHT22;3765;47.962;7.952;2022-07-23T07:26:45;24.30;62.00
7447;DHT22;3765;47.962;7.952;2022-07-23T07:29:17;24.30;61.70
7447;DHT22;3765;47.962;7.952;2022-07-23T07:31:51;24.30;62.00
7447;DHT22;3765;47.962;7.952;2022-07-23T07:34:19;24.40;62.30
7447;DHT22;3765;47.962;7.952;2022-07-23T07:36:56;24.50;62.10
7447;DHT22;3765;47.962;7.952;2022-07-23T07:39:27;24.50;62.30
7447;DHT22;3765;47.962;7.952;2022-07-23T07:41:57;24.30;62.80
7447;DHT22;3765;47.962;7.952;2022-07-23T07:44:32;24.50;62.70
7447;DHT22;3765;47.962;7.952;2022-07-23T07:47:04;24.30;62.70
7447;DHT22;3765;47.962;7.952;2022-07-23T07:49:47;24.30;62.90
7447;DHT22;3765;47.962;7.952;2022-07-23T07:52:20;24.60;62.90
7447;DHT22;3765;47.962;7.952;2022-07-23T07:54:54;24.80;62.50
7447;DHT22;3765;47.962;7.952;2022-07-23T07:57:26;24.90;61.90
7447;DHT22;3765;47.962;7.952;2022-07-23T08:00:08;24.80;61.60
7447;DHT22;3765;47.962;7.952;2022-07-23T08:02:43;24.80;61.60
7447;DHT22;3765;47.962;7.952;2022-07-23T08:05:20;24.80;61.90
7447;DHT22;3765;47.962;7.952;2022-07-23T08:07:57;25.00;61.60
7447;DHT22;3765;47.962;7.952;2022-07-23T08:10:31;24.70;61.80
7447;DHT22;3765;47.962;7.952;2022-07-23T08:13:03;24.80;61.90
7447;DHT22;3765;47.962;7.952;2022-07-23T08:15:59;25.10;61.50
7447;DHT22;3765;47.962;7.952;2022-07-23T08:18:29;25.10;61.30
7447;DHT22;3765;47.962;7.952;2022-07-23T08:21:06;25.10;61.20
7447;DHT22;3765;47.962;7.952;2022-07-23T08:23:37;25.10;61.10
7447;DHT22;3765;47.962;7.952;2022-07-23T08:26:11;25.00;61.10
7447;DHT22;3765;47.962;7.952;2022-07-23T08:28:44;25.30;61.00
7447;DHT22;3765;47.962;7.952;2022-07-23T08:31:16;25.40;60.60
7447;DHT22;3765;47.962;7.952;2022-07-23T08:33:47;25.60;60.20
7447;DHT22;3765;47.962;7.952;2022-07-23T08:36:27;25.60;59.90
7447;DHT22;3765;47.962;7.952;2022-07-23T08:39:04;25.30;59.70
7447;DHT22;3765;47.962;7.952;2022-07-23T08:41:47;25.40;59.90
7447;DHT22;3765;47.962;7.952;2022-07-23T08:44:24;25.40;59.30
7447;DHT22;3765;47.962;7.952;2022-07-23T08:47:26;25.40;59.30
7447;DHT22;3765;47.962;7.952;2022-07-23T08:49:58;25.30;59.10
7447;DHT22;3765;47.962;7.952;2022-07-23T08:52:37;25.40;59.20
7447;DHT22;3765;47.962;7.952;2022-07-23T08:55:12;25.30;58.60
7447;DHT22;3765;47.962;7.952;2022-07-23T08:57:42;25.20;58.90
7447;DHT22;3765;47.962;7.952;2022-07-23T09:00:19;25.30;58.90
7447;DHT22;3765;47.962;7.952;2022-07-23T09:02:59;25.30;58.40
7447;DHT22;3765;47.962;7.952;2022-07-23T09:05:29;25.70;58.50
7447;DHT22;3765;47.962;7.952;2022-07-23T09:08:09;25.80;57.80
7447;DHT22;3765;47.962;7.952;2022-07-23T09:10:59;25.80;57.70
7447;DHT22;3765;47.962;7.952;2022-07-23T09:13:37;25.60;57.10
7447;DHT22;3765;47.962;7.952;2022-07-23T09:16:16;25.80;57.40
7447;DHT22;3765;47.962;7.952;2022-07-23T09:18:52;26.00;56.80
7447;DHT22;3765;47.962;7.952;2022-07-23T09:21:25;26.30;56.10
7447;DHT22;3765;47.962;7.952;2022-07-23T09:23:58;26.00;55.30
7447;DHT22;3765;47.962;7.952;2022-07-23T09:26:31;26.10;55.30
7447;DHT22;3765;47.962;7.952;2022-07-23T09:29:07;26.30;54.60
7447;DHT22;3765;47.962;7.952;2022-07-23T09:31:48;26.50;53.90
7447;DHT22;3765;47.962;7.952;2022-07-23T09:34:25;26.70;53.30
7447;DHT22;3765;47.962;7.952;2022-07-23T09:37:09;26.90;53.60
7447;DHT22;3765;47.962;7.952;2022-07-23T09:39:44;27.00;53.10
7447;DHT22;3765;47.962;7.952;2022-07-23T09:42:15;27.20;52.90
7447;DHT22;3765;47.962;7.952;2022-07-23T09:44:56;27.20;51.80
7447;DHT22;3765;47.962;7.952;2022-07-23T09:47:29;27.00;51.90
7447;DHT22;3765;47.962;7.952;2022-07-23T09:50:02;27.20;52.00
7447;DHT22;3765;47.962;7.952;2022-07-23T09:52:42;27.10;51.70
7447;DHT22;3765;47.962;7.952;2022-07-23T09:55:13;27.20;51.70
7447;DHT22;3765;47.962;7.952;2022-07-23T09:57:46;27.40;51.60
7447;DHT22;3765;47.962;7.952;2022-07-23T10:00:36;27.60;51.10
7447;DHT22;3765;47.962;7.952;2022-07-23T10:03:09;27.50;51.50
7447;DHT22;3765;47.962;7.952;2022-07-23T10:05:56;27.40;51.00
7447;DHT22;3765;47.962;7.952;2022-07-23T10:08:25;27.50;51.20
7447;DHT22;3765;47.962;7.952;2022-07-23T10:11:03;27.80;51.20
7447;DHT22;3765;47.962;7.952;2022-07-23T10:13:42;27.70;50.30
7447;DHT22;3765;47.962;7.952;2022-07-23T10:16:25;27.60;50.70
7447;DHT22;3765;47.962;7.952;2022-07-23T10:19:05;27.80;50.90
7447;DHT22;3765;47.962;7.952;2022-07-23T10:21:49;27.80;50.40
7447;DHT22;3765;47.962;7.952;2022-07-23T10:24:28;27.70;50.80
7447;DHT22;3765;47.962;7.952;2022-07-23T10:27:22;27.90;50.70
7447;DHT22;3765;47.962;7.952;2022-07-23T10:30:02;28.00;50.10
7447;DHT22;3765;47.962;7.952;2022-07-23T10:32:48;27.80;50.20
7447;DHT22;3765;47.962;7.952;2022-07-23T10:35:29;27.90;50.20
7447;DHT22;3765;47.962;7.952;2022-07-23T10:38:12;28.00;50.10
7447;DHT22;3765;47.962;7.952;2022-07-23T10:40:58;28.30;49.80
7447;DHT22;3765;47.962;7.952;2022-07-23T10:43:29;28.20;49.30
7447;DHT22;3765;47.962;7.952;2022-07-23T10:46:27;28.00;49.90
7447;DHT22;3765;47.962;7.952;2022-07-23T10:49:24;28.30;49.70
7447;DHT22;3765;47.962;7.952;2022-07-23T10:52:21;28.30;49.60
7447;DHT22;3765;47.962;7.952;2022-07-23T10:57:54;28.90;48.60
7447;DHT22;3765;47.962;7.952;2022-07-23T11:00:24;28.50;49.10
7447;DHT22;3765;47.962;7.952;2022-07-23T11:02:55;28.80;48.70
7447;DHT22;3765;47.962;7.952;2022-07-23T11:05:41;28.80;48.90
7447;DHT22;3765;47.962;7.952;2022-07-23T11:08:16;28.70;48.40
7447;DHT22;3765;47.962;7.952;2022-07-23T11:10:55;28.30;48.40
7447;DHT22;3765;47.962;7.952;2022-07-23T11:13:43;28.00;48.60
7447;DHT22;3765;47.962;7.952;2022-07-23T11:16:28;28.00;48.60
7447;DHT22;3765;47.962;7.952;2022-07-23T11:19:09;28.30;49.00
7447;DHT22;3765;47.962;7.952;2022-07-23T11:21:53;28.40;48.90
7447;DHT22;3765;47.962;7.952;2022-07-23T11:24:28;28.30;48.60
7447;DHT22;3765;47.962;7.952;2022-07-23T11:27:03;28.10;49.00
7447;DHT22;3765;47.962;7.952;2022-07-23T11:29:45;28.00;49.30
7447;DHT22;3765;47.962;7.952;2022-07-23T11:32:42;28.20;49.00
7447;DHT22;3765;47.962;7.952;2022-07-23T11:35:24;28.00;49.00
7447;DHT22;3765;47.962;7.952;2022-07-23T11:38:06;28.40;49.20
7447;DHT22;3765;47.962;7.952;2022-07-23T11:40:35;28.50;48.60
7447;DHT22;3765;47.962;7.952;2022-07-23T11:43:06;28.50;48.50
7447;DHT22;3765;47.962;7.952;2022-07-23T11:45:37;28.70;48.00
7447;DHT22;3765;47.962;7.952;2022-07-23T11:48:06;28.50;48.10
7447;DHT22;3765;47.962;7.952;2022-07-23T11:50:35;28.70;47.90
7447;DHT22;3765;47.962;7.952;2022-07-23T11:53:04;29.10;47.90
7447;DHT22;3765;47.962;7.952;2022-07-23T11:55:32;29.10;47.10
7447;DHT22;3765;47.962;7.952;2022-07-23T11:58:01;29.30;47.00
7447;DHT22;3765;47.962;7.952;2022-07-23T12:00:31;29.70;46.80
7447;DHT22;3765;47.962;7.952;2022-07-23T12:03:06;29.70;46.70
7447;DHT22;3765;47.962;7.952;2022-07-23T12:05:36;29.70;46.20
7447;DHT22;3765;47.962;7.952;2022-07-23T12:08:06;29.80;46.40
7447;DHT22;3765;47.962;7.952;2022-07-23T12:10:37;29.80;46.00
7447;DHT22;3765;47.962;7.952;2022-07-23T12:13:07;29.90;45.90
7447;DHT22;3765;47.962;7.952;2022-07-23T12:15:39;29.80;46.00
7447;DHT22;3765;47.962;7.952;2022-07-23T12:18:10;29.80;46.30
7447;DHT22;3765;47.962;7.952;2022-07-23T12:20:41;30.30;45.70
7447;DHT22;3765;47.962;7.952;2022-07-23T12:23:13;30.30;45.40
7447;DHT22;3765;47.962;7.952;2022-07-23T12:25:48;30.10;45.30
7447;DHT22;3765;47.962;7.952;2022-07-23T12:28:18;30.20;45.10
7447;DHT22;3765;47.962;7.952;2022-07-23T12:30:49;30.30;45.20
7447;DHT22;3765;47.962;7.952;2022-07-23T12:33:23;30.30;44.90
7447;DHT22;3765;47.962;7.952;2022-07-23T12:35:53;30.20;45.00
7447;DHT22;3765;47.962;7.952;2022-07-23T12:38:23;30.40;44.70
7447;DHT22;3765;47.962;7.952;2022-07-23T12:40:54;30.10;44.50
7447;DHT22;3765;47.962;7.952;2022-07-23T12:43:23;30.40;44.40
7447;DHT22;3765;47.962;7.952;2022-07-23T12:45:56;30.80;43.80
7447;DHT22;3765;47.962;7.952;2022-07-23T12:48:26;30.10;43.50
7447;DHT22;3765;47.962;7.952;2022-07-23T12:50:57;30.20;43.70
7447;DHT22;3765;47.962;7.952;2022-07-23T12:53:27;29.90;43.60
7447;DHT22;3765;47.962;7.952;2022-07-23T12:56:02;29.80;43.70
7447;DHT22;3765;47.962;7.952;2022-07-23T12:58:46;30.10;44.00
7447;DHT22;3765;47.962;7.952;2022-07-23T13:01:26;30.50;43.60
7447;DHT22;3765;47.962;7.952;2022-07-23T13:04:00;30.50;43.50
7447;DHT22;3765;47.962;7.952;2022-07-23T13:06:38;31.30;43.50
7447;DHT22;3765;47.962;7.952;2022-07-23T13:09:09;31.50;42.70
7447;DHT22;3765;47.962;7.952;2022-07-23T13:11:37;31.10;42.60
7447;DHT22;3765;47.962;7.952;2022-07-23T13:14:06;30.80;42.50
7447;DHT22;3765;47.962;7.952;2022-07-23T13:16:36;30.40;42.60
7447;DHT22;3765;47.962;7.952;2022-07-23T13:19:05;30.50;42.70
7447;DHT22;3765;47.962;7.952;2022-07-23T13:21:38;30.60;42.10
7447;DHT22;3765;47.962;7.952;2022-07-23T13:24:09;31.00;41.70
7447;DHT22;3765;47.962;7.952;2022-07-23T13:26:39;31.00;41.50
7447;DHT22;3765;47.962;7.952;2022-07-23T13:29:07;31.00;41.10
7447;DHT22;3765;47.962;7.952;2022-07-23T13:31:38;31.10;41.10
7447;DHT22;3765;47.962;7.952;2022-07-23T13:34:07;31.30;40.70
7447;DHT22;3765;47.962;7.952;2022-07-23T13:36:36;31.20;40.60
7447;DHT22;3765;47.962;7.952;2022-07-23T13:39:05;31.30;40.40
7447;DHT22;3765;47.962;7.952;2022-07-23T13:41:36;30.70;40.60
7447;DHT22;3765;47.962;7.952;2022-07-23T13:44:04;30.70;40.30
7447;DHT22;3765;47.962;7.952;2022-07-23T13:46:33;30.50;40.60
7447;DHT22;3765;47.962;7.952;2022-07-23T13:49:03;30.80;40.90
7447;DHT22;3765;47.962;7.952;2022-07-23T13:51:35;31.10;40.40
7447;DHT22;3765;47.962;7.952;2022-07-23T13:54:04;31.40;40.50
7447;DHT22;3765;47.962;7.952;2022-07-23T13:56:52;31.90;39.70
7447;DHT22;3765;47.962;7.952;2022-07-23T13:59:20;31.70;39.90
7447;DHT22;3765;47.962;7.952;2022-07-23T14:01:52;31.80;39.50
7447;DHT22;3765;47.962;7.952;2022-07-23T14:04:42;32.10;39.60
7447;DHT22;3765;47.962;7.952;2022-07-23T14:07:11;32.40;39.20
7447;DHT22;3765;47.962;7.952;2022-07-23T14:09:39;32.20;39.00
7447;DHT22;3765;47.962;7.952;2022-07-23T14:12:08;32.00;38.60
7447;DHT22;3765;47.962;7.952;2022-07-23T14:14:37;31.80;39.10
7447;DHT22;3765;47.962;7.952;2022-07-23T14:17:06;32.10;38.20
7447;DHT22;3765;47.962;7.952;2022-07-23T14:19:37;32.00;38.20
7447;DHT22;3765;47.962;7.952;2022-07-23T14:22:07;31.80;38.50
7447;DHT22;3765;47.962;7.952;2022-07-23T14:24:35;31.90;38.40
7447;DHT22;3765;47.962;7.952;2022-07-23T14:27:04;32.30;38.30
7447;DHT22;3765;47.962;7.952;2022-07-23T14:29:33;32.70;37.90
7447;DHT22;3765;47.962;7.952;2022-07-23T14:32:03;33.50;37.80
7447;DHT22;3765;47.962;7.952;2022-07-23T14:34:33;34.10;37.10
7447;DHT22;3765;47.962;7.952;2022-07-23T14:37:03;34.00;36.60
7447;DHT22;3765;47.962;7.952;2022-07-23T14:39:33;34.20;36.00
7447;DHT22;3765;47.962;7.952;2022-07-23T14:42:01;34.20;36.00
7447;DHT22;3765;47.962;7.952;2022-07-23T14:44:29;33.80;35.80
7447;DHT22;3765;47.962;7.952;2022-07-23T14:46:58;32.90;36.10
7447;DHT22;3765;47.962;7.952;2022-07-23T14:49:26;32.10;36.90
7447;DHT22;3765;47.962;7.952;2022-07-23T14:51:55;31.10;38.30
7447;DHT22;3765;47.962;7.952;2022-07-23T14:54:23;30.90;38.70
7447;DHT22;3765;47.962;7.952;2022-07-23T14:56:55;30.80;39.20
7447;DHT22;3765;47.962;7.952;2022-07-23T14:59:25;31.70;39.40
7447;DHT22;3765;47.962;7.952;2022-07-23T15:01:53;32.70;38.60
7447;DHT22;3765;47.962;7.952;2022-07-23T15:04:23;32.80;38.00
7447;DHT22;3765;47.962;7.952;2022-07-23T15:07:06;32.20;38.40
7447;DHT22;3765;47.962;7.952;2022-07-23T15:09:35;32.00;38.70
7447;DHT22;3765;47.962;7.952;2022-07-23T15:12:06;31.60;39.00
7447;DHT22;3765;47.962;7.952;2022-07-23T15:14:43;31.60;39.30
7447;DHT22;3765;47.962;7.952;2022-07-23T15:17:15;31.10;39.60
7447;DHT22;3765;47.962;7.952;2022-07-23T15:19:50;31.00;40.00
7447;DHT22;3765;47.962;7.952;2022-07-23T15:22:22;30.90;40.40
7447;DHT22;3765;47.962;7.952;2022-07-23T15:25:03;30.70;40.50
7447;DHT22;3765;47.962;7.952;2022-07-23T15:27:38;30.30;40.80
7447;DHT22;3765;47.962;7.952;2022-07-23T15:30:15;30.70;41.10
7447;DHT22;3765;47.962;7.952;2022-07-23T15:32:44;31.40;40.10
7447;DHT22;3765;47.962;7.952;2022-07-23T15:35:16;31.80;40.00
7447;DHT22;3765;47.962;7.952;2022-07-23T15:37:48;32.20;39.50
7447;DHT22;3765;47.962;7.952;2022-07-23T15:40:18;32.00;39.50
7447;DHT22;3765;47.962;7.952;2022-07-23T15:42:50;31.50;39.50
7447;DHT22;3765;47.962;7.952;2022-07-23T15:45:22;30.90;40.00
7447;DHT22;3765;47.962;7.952;2022-07-23T15:47:51;30.80;40.50
7447;DHT22;3765;47.962;7.952;2022-07-23T15:50:37;30.80;40.60
7447;DHT22;3765;47.962;7.952;2022-07-23T15:53:13;31.00;40.40
7447;DHT22;3765;47.962;7.952;2022-07-23T15:55:45;31.20;40.40
7447;DHT22;3765;47.962;7.952;2022-07-23T15:58:31;31.30;40.20
7447;DHT22;3765;47.962;7.952;2022-07-23T16:01:08;31.10;40.00
7447;DHT22;3765;47.962;7.952;2022-07-23T16:03:42;30.80;40.50
7447;DHT22;3765;47.962;7.952;2022-07-23T16:06:25;30.40;40.80
7447;DHT22;3765;47.962;7.952;2022-07-23T16:09:11;30.30;41.20
7447;DHT22;3765;47.962;7.952;2022-07-23T16:11:46;30.20;41.20
7447;DHT22;3765;47.962;7.952;2022-07-23T16:14:18;29.90;40.90
7447;DHT22;3765;47.962;7.952;2022-07-23T16:16:48;29.90;41.10
7447;DHT22;3765;47.962;7.952;2022-07-23T16:19:21;30.00;41.00
7447;DHT22;3765;47.962;7.952;2022-07-23T16:21:52;29.80;40.70
7447;DHT22;3765;47.962;7.952;2022-07-23T16:24:20;29.90;40.60
7447;DHT22;3765;47.962;7.952;2022-07-23T16:26:49;30.30;40.60
7447;DHT22;3765;47.962;7.952;2022-07-23T16:29:19;30.50;40.10
7447;DHT22;3765;47.962;7.952;2022-07-23T16:31:47;31.10;39.60
7447;DHT22;3765;47.962;7.952;2022-07-23T16:34:16;31.80;39.40
7447;DHT22;3765;47.962;7.952;2022-07-23T16:36:45;33.70;37.10
7447;DHT22;3765;47.962;7.952;2022-07-23T16:39:13;32.70;37.10
7447;DHT22;3765;47.962;7.952;2022-07-23T16:41:42;34.60;36.00
7447;DHT22;3765;47.962;7.952;2022-07-23T16:44:11;35.80;34.40
7447;DHT22;3765;47.962;7.952;2022-07-23T16:46:41;34.50;34.70
7447;DHT22;3765;47.962;7.952;2022-07-23T16:49:09;33.30;35.70
7447;DHT22;3765;47.962;7.952;2022-07-23T16:51:37;35.80;34.30
7447;DHT22;3765;47.962;7.952;2022-07-23T16:54:06;38.00;32.30